createdAt,value
2019-06-10T00:01:41.831Z,98472.53
2019-06-10T00:04:12.429Z,98471.38
2019-06-10T00:06:42.353Z,98470.70
2019-06-10T00:09:31.355Z,98471.84
2019-06-10T00:12:04.217Z,98467.77
2019-06-10T00:14:32.496Z,98464.03
2019-06-10T00:17:04.631Z,98456.98
2019-06-10T00:19:33.363Z,98450.92
2019-06-10T00:22:04.065Z,98446.41
2019-06-10T00:24:35.590Z,98454.19
2019-06-10T00:27:07.105Z,98452.91
2019-06-10T00:29:36.728Z,98451.57
2019-06-10T00:32:08.009Z,98453.00
2019-06-10T00:34:37.452Z,98464.15
2019-06-10T00:37:09.197Z,98472.97
2019-06-10T00:39:40.740Z,98473.98
2019-06-10T00:42:11.785Z,98469.80
2019-06-10T00:44:41.663Z,98474.95
2019-06-10T00:47:14.690Z,98477.91
2019-06-10T00:49:42.569Z,98468.36
2019-06-10T00:52:13.911Z,98455.99
2019-06-10T00:54:43.471Z,98449.92
2019-06-10T00:57:13.788Z,98441.06
2019-06-10T00:59:43.493Z,98433.17
2019-06-10T01:02:14.544Z,98430.06
2019-06-10T01:04:45.146Z,98424.88
2019-06-10T01:07:15.092Z,98408.33
2019-06-10T01:09:44.811Z,98401.72
2019-06-10T01:12:15.032Z,98393.99
2019-06-10T01:14:44.791Z,98392.39
2019-06-10T01:17:15.466Z,98404.88
2019-06-10T01:19:46.418Z,98420.87
2019-06-10T01:22:17.268Z,98441.81
2019-06-10T01:24:47.138Z,98453.98
2019-06-10T01:27:17.932Z,98471.84
2019-06-10T01:29:47.550Z,98481.53
2019-06-10T01:32:18.644Z,98484.33
2019-06-10T01:34:50.674Z,98480.45
2019-06-10T01:37:21.567Z,98479.08
2019-06-10T01:39:51.491Z,98484.89
2019-06-10T01:42:21.642Z,98488.70
2019-06-10T01:44:51.253Z,98488.36
2019-06-10T01:47:26.494Z,98485.66
2019-06-10T01:49:56.003Z,98474.64
2019-06-10T01:52:28.130Z,98457.64
2019-06-10T01:54:57.638Z,98447.81
2019-06-10T01:57:27.139Z,98436.12
2019-06-10T01:59:56.599Z,98446.34
2019-06-10T02:02:26.498Z,98443.22
2019-06-10T02:04:55.985Z,98439.69
2019-06-10T02:07:25.553Z,98432.44
2019-06-10T02:09:55.029Z,98440.33
2019-06-10T02:12:24.568Z,98431.23
2019-06-10T02:14:54.208Z,98448.86
2019-06-10T02:17:24.262Z,98447.58
2019-06-10T02:19:54.309Z,98447.29
2019-06-10T02:22:24.470Z,98447.88
2019-06-10T02:24:55.237Z,98447.78
2019-06-10T02:27:24.680Z,98446.65
2019-06-10T02:29:57.200Z,98446.80
2019-06-10T02:32:33.095Z,98456.65
2019-06-10T02:35:08.802Z,98452.52
2019-06-10T02:37:37.970Z,98455.38
2019-06-10T02:40:07.007Z,98457.66
2019-06-10T02:42:38.439Z,98454.06
2019-06-10T02:45:13.812Z,98459.00
2019-06-10T02:47:44.277Z,98454.35
2019-06-10T02:50:18.863Z,98449.41
2019-06-10T02:52:45.693Z,98439.70
2019-06-10T02:55:16.326Z,98434.93
2019-06-10T02:57:46.626Z,98424.16
2019-06-10T03:00:31.738Z,98407.19
2019-06-10T03:02:48.195Z,98396.23
2019-06-10T03:05:20.166Z,98395.58
2019-06-10T03:07:48.997Z,98390.78
2019-06-10T03:10:21.120Z,98397.23
2019-06-10T03:12:52.659Z,98407.48
2019-06-10T03:15:24.510Z,98405.38
2019-06-10T03:17:52.592Z,98407.19
2019-06-10T03:20:25.868Z,98408.55
2019-06-10T03:22:54.437Z,98404.28
2019-06-10T03:25:25.975Z,98391.47
2019-06-10T03:27:56.710Z,98387.15
2019-06-10T03:30:44.201Z,98392.26
2019-06-10T03:32:57.385Z,98389.60
2019-06-10T03:35:28.390Z,98379.18
2019-06-10T03:37:58.048Z,98374.92
2019-06-10T03:40:27.811Z,98369.47
2019-06-10T03:43:02.497Z,98378.79
2019-06-10T03:45:32.376Z,98376.08
2019-06-10T03:48:03.727Z,98390.53
2019-06-10T03:50:33.421Z,98390.38
2019-06-10T03:53:04.410Z,98394.27
2019-06-10T03:55:34.065Z,98390.95
2019-06-10T03:58:03.595Z,98399.79
2019-06-10T04:00:37.050Z,98396.92
2019-06-10T04:03:07.012Z,98399.28
2019-06-10T04:05:36.704Z,98400.97
2019-06-10T04:08:06.275Z,98396.84
2019-06-10T04:10:35.751Z,98407.81
2019-06-10T04:13:05.323Z,98407.77
2019-06-10T04:15:35.228Z,98403.89
2019-06-10T04:18:04.723Z,98399.61
2019-06-10T04:20:34.795Z,98408.65
2019-06-10T04:23:04.320Z,98402.50
2019-06-10T04:25:33.679Z,98401.58
2019-06-10T04:28:03.367Z,98399.36
2019-06-10T04:30:32.974Z,98402.31
2019-06-10T04:33:02.464Z,98399.06
2019-06-10T04:35:33.665Z,98398.29
2019-06-10T04:38:03.319Z,98398.10
2019-06-10T04:40:32.981Z,98397.52
2019-06-10T04:43:03.020Z,98404.52
2019-06-10T04:45:32.750Z,98411.05
2019-06-10T04:48:03.046Z,98409.63
2019-06-10T04:50:41.526Z,98409.45
2019-06-10T04:53:03.952Z,98415.41
2019-06-10T04:55:33.445Z,98419.06
2019-06-10T04:58:02.912Z,98418.05
2019-06-10T05:00:33.147Z,98416.41
2019-06-10T05:03:06.432Z,98419.26
2019-06-10T05:05:38.701Z,98418.61
2019-06-10T05:08:08.158Z,98419.10
2019-06-10T05:10:37.625Z,98415.50
2019-06-10T05:13:07.147Z,98411.89
2019-06-10T05:15:36.633Z,98417.77
2019-06-10T05:18:06.214Z,98428.01
2019-06-10T05:20:51.054Z,98419.03
2019-06-10T05:23:07.831Z,98420.90
2019-06-10T05:25:37.335Z,98419.42
2019-06-10T05:28:07.032Z,98429.33
2019-06-10T05:30:36.509Z,98430.61
2019-06-10T05:33:06.063Z,98430.44
2019-06-10T05:35:35.546Z,98430.81
2019-06-10T05:38:05.024Z,98432.91
2019-06-10T05:40:34.532Z,98434.52
2019-06-10T05:43:04.132Z,98427.08
2019-06-10T05:45:35.071Z,98423.16
2019-06-10T05:48:05.086Z,98421.05
2019-06-10T05:50:35.001Z,98426.88
2019-06-10T05:53:04.828Z,98433.30
2019-06-10T05:55:35.261Z,98436.27
2019-06-10T05:58:05.295Z,98431.34
2019-06-10T06:00:35.546Z,98432.66
2019-06-10T06:03:05.365Z,98435.45
2019-06-10T06:05:36.263Z,98436.94
2019-06-10T06:08:08.902Z,98436.33
2019-06-10T06:10:37.822Z,98436.14
2019-06-10T06:13:07.385Z,98432.50
2019-06-10T06:15:37.981Z,98427.90
2019-06-10T06:18:10.760Z,98429.39
2019-06-10T06:20:52.602Z,98416.17
2019-06-10T06:23:23.090Z,98418.06
2019-06-10T06:25:53.292Z,98414.84
2019-06-10T06:28:23.046Z,98409.09
2019-06-10T06:30:52.853Z,98413.31
2019-06-10T06:33:22.360Z,98414.07
2019-06-10T06:35:52.493Z,98418.95
2019-06-10T06:38:43.608Z,98427.52
2019-06-10T06:41:13.632Z,98426.99
2019-06-10T06:43:45.480Z,98416.17
2019-06-10T06:46:14.806Z,98409.23
2019-06-10T06:49:03.600Z,98417.02
2019-06-10T06:51:43.950Z,98405.40
2019-06-10T06:54:04.429Z,98389.08
2019-06-10T06:56:37.085Z,98385.70
2019-06-10T06:59:07.318Z,98383.91
2019-06-10T07:01:38.979Z,98392.72
2019-06-10T07:04:08.313Z,98401.37
2019-06-10T07:06:40.363Z,98384.98
2019-06-10T07:09:17.635Z,98388.20
2019-06-10T07:11:48.499Z,98393.74
2019-06-10T07:14:20.048Z,98395.96
2019-06-10T07:16:49.724Z,98404.81
2019-06-10T07:19:22.645Z,98412.29
2019-06-10T07:22:08.326Z,98409.64
2019-06-10T07:24:24.399Z,98405.91
2019-06-10T07:26:54.970Z,98392.92
2019-06-10T07:29:24.634Z,98400.34
2019-06-10T07:31:56.838Z,98395.03
2019-06-10T07:34:26.409Z,98401.20
2019-06-10T07:36:55.874Z,98393.86
2019-06-10T07:39:25.357Z,98390.47
2019-06-10T07:41:54.904Z,98387.70
2019-06-10T07:44:24.414Z,98387.47
2019-06-10T07:46:54.027Z,98388.33
2019-06-10T07:49:23.946Z,98380.41
2019-06-10T07:51:53.989Z,98380.05
2019-06-10T07:54:23.490Z,98389.34
2019-06-10T07:56:53.742Z,98390.47
2019-06-10T07:59:23.608Z,98393.02
2019-06-10T08:01:55.260Z,98384.36
2019-06-10T08:04:24.555Z,98376.56
2019-06-10T08:07:03.420Z,98326.07
2019-06-10T08:09:33.471Z,98371.75
2019-06-10T08:12:06.012Z,98369.22
2019-06-10T08:14:35.410Z,98370.97
2019-06-10T08:17:05.033Z,98372.45
2019-06-10T08:19:38.735Z,98371.14
2019-06-10T08:22:05.913Z,98368.55
2019-06-10T08:24:35.386Z,98367.32
2019-06-10T08:27:05.025Z,98371.52
2019-06-10T08:29:34.552Z,98363.11
2019-06-10T08:32:04.180Z,98363.23
2019-06-10T08:34:33.659Z,98369.83
2019-06-10T08:37:04.195Z,98362.74
2019-06-10T08:39:34.291Z,98360.53
2019-06-10T08:42:04.036Z,98362.64
2019-06-10T08:44:33.522Z,98343.41
2019-06-10T08:47:03.177Z,98334.63
2019-06-10T08:49:32.863Z,98339.98
2019-06-10T08:52:02.842Z,98325.30
2019-06-10T08:54:32.582Z,98317.03
2019-06-10T08:57:03.753Z,98325.66
2019-06-10T08:59:33.274Z,98312.91
2019-06-10T09:02:03.124Z,98311.66
2019-06-10T09:04:33.060Z,98310.91
2019-06-10T09:07:04.166Z,98308.16
2019-06-10T09:09:33.941Z,98300.58
2019-06-10T09:12:03.763Z,98293.20
2019-06-10T09:14:33.406Z,98294.70
2019-06-10T09:17:03.401Z,98294.66
2019-06-10T09:19:33.312Z,98288.12
2019-06-10T09:22:03.901Z,98272.90
2019-06-10T09:24:33.674Z,98277.59
2019-06-10T09:27:03.167Z,98275.54
2019-06-10T09:29:48.943Z,98276.88
2019-06-10T09:32:16.104Z,98284.30
2019-06-10T09:34:49.707Z,98284.11
2019-06-10T09:37:17.072Z,98279.11
2019-06-10T09:39:52.294Z,98263.56
2019-06-10T09:42:19.365Z,98259.98
2019-06-10T09:44:54.370Z,98261.77
2019-06-10T09:47:22.950Z,98246.39
2019-06-10T09:49:55.702Z,98250.00
2019-06-10T09:52:24.956Z,98244.30
2019-06-10T09:55:14.102Z,98244.18
2019-06-10T09:57:59.438Z,98239.47
2019-06-10T10:00:29.220Z,98237.58
2019-06-10T10:02:58.818Z,98245.50
2019-06-10T10:05:28.295Z,98243.61
2019-06-10T10:07:58.396Z,98233.41
2019-06-10T10:10:32.831Z,98234.94
2019-06-10T10:13:02.744Z,98216.32
2019-06-10T10:15:34.574Z,98212.09
2019-06-10T10:18:06.870Z,98195.84
2019-06-10T10:20:37.561Z,98193.86
2019-06-10T10:23:26.392Z,98190.11
2019-06-10T10:25:57.135Z,98197.51
2019-06-10T10:28:26.845Z,98194.72
2019-06-10T10:30:58.062Z,98190.59
2019-06-10T10:33:30.298Z,98198.53
2019-06-10T10:36:18.387Z,98199.61
2019-06-10T10:38:48.838Z,98193.55
2019-06-10T10:41:18.564Z,98182.67
2019-06-10T10:43:51.199Z,98190.20
2019-06-10T10:46:19.221Z,98192.91
2019-06-10T10:48:49.014Z,98181.34
2019-06-10T10:51:18.705Z,98175.82
2019-06-10T10:53:57.287Z,98171.33
2019-06-10T10:56:22.163Z,98170.64
2019-06-10T10:58:55.604Z,98168.16
2019-06-10T11:01:23.486Z,98170.64
2019-06-10T11:03:58.751Z,98168.13
2019-06-10T11:06:24.734Z,98185.68
2019-06-10T11:08:55.850Z,98193.03
2019-06-10T11:11:27.676Z,98194.85
2019-06-10T11:14:03.312Z,98198.63
2019-06-10T11:16:38.192Z,98203.41
2019-06-10T11:19:07.730Z,98200.64
2019-06-10T11:21:37.203Z,98194.84
2019-06-10T11:24:08.486Z,98188.95
2019-06-10T11:26:38.060Z,98189.69
2019-06-10T11:29:07.738Z,98182.84
2019-06-10T11:31:42.325Z,98170.94
2019-06-10T11:34:12.777Z,98157.36
2019-06-10T11:36:42.698Z,98146.88
2019-06-10T11:39:13.345Z,98148.86
2019-06-10T11:41:43.809Z,98140.09
2019-06-10T11:44:13.350Z,98155.29
2019-06-10T11:46:49.012Z,98159.95
2019-06-10T11:49:18.484Z,98168.86
2019-06-10T11:51:49.097Z,98157.73
2019-06-10T11:54:18.766Z,98152.88
2019-06-10T11:56:48.267Z,98152.80
2019-06-10T11:59:17.804Z,98152.23
2019-06-10T12:01:49.272Z,98149.60
2019-06-10T12:04:18.556Z,98152.23
2019-06-10T12:06:48.657Z,98148.26
2019-06-10T12:09:18.315Z,98138.70
2019-06-10T12:11:49.060Z,98134.30
2019-06-10T12:14:26.817Z,98114.70
2019-06-10T12:19:25.319Z,98091.33
2019-06-10T12:21:57.753Z,98087.13
2019-06-10T12:24:33.126Z,98081.47
2019-06-10T12:27:05.028Z,98083.44
2019-06-10T12:29:42.169Z,98083.51
2019-06-10T12:32:13.539Z,98069.30
2019-06-10T12:34:46.078Z,98061.48
2019-06-10T12:37:15.985Z,98071.80
2019-06-10T12:40:07.491Z,98083.44
2019-06-10T12:42:37.012Z,98095.56
2019-06-10T12:45:08.821Z,98099.16
2019-06-10T12:47:44.572Z,98108.84
2019-06-10T12:50:15.582Z,98124.70
2019-06-10T12:52:45.269Z,98128.61
2019-06-10T12:55:42.326Z,98127.15
2019-06-10T12:58:24.608Z,98134.84
2019-06-10T13:00:55.494Z,98147.70
2019-06-10T13:03:25.062Z,98156.55
2019-06-10T13:05:57.663Z,98165.68
2019-06-10T13:08:33.042Z,98166.23
2019-06-10T13:11:02.157Z,98167.05
2019-06-10T13:13:32.855Z,98166.41
2019-06-10T13:16:06.714Z,98172.28
2019-06-10T13:18:53.870Z,98178.47
2019-06-10T13:21:23.455Z,98179.50
2019-06-10T13:23:54.147Z,98174.52
2019-06-10T13:26:24.023Z,98165.58
2019-06-10T13:28:54.394Z,98157.21
2019-06-10T13:31:23.929Z,98138.56
2019-06-10T13:33:53.431Z,98119.25
2019-06-10T13:36:26.188Z,98112.93
2019-06-10T13:38:57.402Z,98105.34
2019-06-10T13:41:27.174Z,98094.48
2019-06-10T13:43:57.621Z,98092.71
2019-06-10T13:46:27.393Z,98085.05
2019-06-10T13:48:56.867Z,98082.89
2019-06-10T13:51:26.467Z,98076.94
2019-06-10T13:53:55.964Z,98076.11
2019-06-10T13:56:43.000Z,98073.36
2019-06-10T13:59:15.995Z,98077.20
2019-06-10T14:01:45.459Z,98091.11
2019-06-10T14:04:21.401Z,98105.91
2019-06-10T14:06:50.364Z,98119.75
2019-06-10T14:09:17.806Z,98121.58
2019-06-10T14:11:47.306Z,98137.41
2019-06-10T14:14:18.171Z,98135.92
2019-06-10T14:16:47.874Z,98136.91
2019-06-10T14:19:17.332Z,98135.22
2019-06-10T14:21:46.919Z,98128.92
2019-06-10T14:24:16.465Z,98130.52
2019-06-10T14:26:46.185Z,98120.28
2019-06-10T14:29:16.261Z,98108.27
2019-06-10T14:31:47.811Z,98113.76
2019-06-10T14:34:18.636Z,98099.31
2019-06-10T14:36:48.542Z,98072.37
2019-06-10T14:39:18.034Z,98064.45
2019-06-10T14:41:47.539Z,98050.83
2019-06-10T14:44:18.032Z,98030.64
2019-06-10T14:46:47.929Z,98028.49
2019-06-10T14:49:17.403Z,98027.86
2019-06-10T14:51:46.969Z,98041.54
2019-06-10T14:54:18.355Z,98045.44
2019-06-10T14:56:53.724Z,98047.92
2019-06-10T14:59:18.892Z,98058.40
2019-06-10T15:01:48.578Z,98070.46
2019-06-10T15:04:19.563Z,98063.36
2019-06-10T15:06:49.172Z,98068.02
2019-06-10T15:09:19.824Z,98077.86
2019-06-10T15:11:49.440Z,98072.18
2019-06-10T15:14:20.446Z,98073.02
2019-06-10T15:16:53.169Z,98071.18
2019-06-10T15:19:28.026Z,98078.09
2019-06-10T15:21:52.758Z,98091.79
2019-06-10T15:24:23.735Z,98097.58
2019-06-10T15:27:08.924Z,98096.94
2019-06-10T15:29:44.078Z,98102.70
2019-06-10T15:32:24.464Z,98104.30
2019-06-10T15:34:44.834Z,98107.73
2019-06-10T15:37:17.124Z,98117.98
2019-06-10T15:39:45.555Z,98117.76
2019-06-10T15:42:15.509Z,98112.73
2019-06-10T15:44:52.353Z,98112.20
2019-06-10T15:47:20.489Z,98116.53
2019-06-10T15:49:47.830Z,98119.19
2019-06-10T15:52:36.698Z,98125.61
2019-06-10T15:55:08.353Z,98120.29
2019-06-10T15:57:42.669Z,98112.56
2019-06-10T16:00:14.175Z,98107.94
2019-06-10T16:02:41.281Z,98100.53
2019-06-10T16:05:13.967Z,98106.72
2019-06-10T16:07:42.445Z,98096.26
2019-06-10T16:10:15.704Z,98084.77
2019-06-10T16:12:43.892Z,98071.44
2019-06-10T16:15:16.123Z,98061.53
2019-06-10T16:17:45.497Z,98076.77
2019-06-10T16:20:16.443Z,98078.91
2019-06-10T16:22:46.708Z,98088.53
2019-06-10T16:25:17.769Z,98078.02
2019-06-10T16:27:51.705Z,98066.23
2019-06-10T16:30:23.198Z,98057.42
2019-06-10T16:32:53.017Z,98051.89
2019-06-10T16:35:28.799Z,98042.31
2019-06-10T16:37:58.268Z,98051.41
2019-06-10T16:40:29.279Z,98073.09
2019-06-10T16:42:58.808Z,98077.92
2019-06-10T16:45:30.807Z,98076.67
2019-06-10T16:48:02.244Z,98069.96
2019-06-10T16:50:34.068Z,98067.13
2019-06-10T16:53:03.031Z,98063.81
2019-06-10T16:55:33.325Z,98060.48
2019-06-10T16:58:03.014Z,98056.81
2019-06-10T17:00:34.823Z,98058.76
2019-06-10T17:03:03.703Z,98063.88
2019-06-10T17:05:33.261Z,98070.02
2019-06-10T17:08:03.282Z,98072.94
2019-06-10T17:10:34.461Z,98063.72
2019-06-10T17:13:06.009Z,98066.35
2019-06-10T17:15:35.687Z,98071.88
2019-06-10T17:18:06.645Z,98076.56
2019-06-10T17:20:36.186Z,98084.73
2019-06-10T17:23:07.659Z,98102.99
2019-06-10T17:25:37.142Z,98096.95
2019-06-10T17:28:18.164Z,98109.42
2019-06-10T17:30:38.063Z,98116.66
2019-06-10T17:33:07.548Z,98121.13
2019-06-10T17:35:37.255Z,98122.58
2019-06-10T17:38:06.739Z,98113.48
2019-06-10T17:40:36.211Z,98115.84
2019-06-10T17:43:05.887Z,98108.88
2019-06-10T17:45:35.379Z,98112.22
2019-06-10T17:48:05.069Z,98112.38
2019-06-10T17:50:34.671Z,98114.53
2019-06-10T17:53:04.301Z,98109.08
2019-06-10T17:55:35.657Z,98099.87
2019-06-10T17:58:05.445Z,98104.59
2019-06-10T18:00:36.343Z,98102.56
2019-06-10T18:03:06.746Z,98098.69
2019-06-10T18:05:36.263Z,98094.48
2019-06-10T18:08:05.717Z,98090.56
2019-06-10T18:10:36.736Z,98079.00
2019-06-10T18:13:13.982Z,98067.36
2019-06-10T18:15:37.790Z,98061.20
2019-06-10T18:18:07.387Z,98049.91
2019-06-10T18:20:37.064Z,98035.76
2019-06-10T18:23:06.729Z,98037.92
2019-06-10T18:25:36.891Z,98036.16
2019-06-10T18:28:06.506Z,98038.56
2019-06-10T18:30:37.729Z,98041.22
2019-06-10T18:33:07.328Z,98048.92
2019-06-10T18:35:37.620Z,98053.16
2019-06-10T18:38:07.285Z,98056.98
2019-06-10T18:40:36.825Z,98062.52
2019-06-10T18:43:06.877Z,98074.52
2019-06-10T18:45:38.280Z,98078.22
2019-06-10T18:48:07.630Z,98078.19
2019-06-10T18:50:38.404Z,98084.05
2019-06-10T18:53:08.503Z,98091.36
2019-06-10T18:55:40.603Z,98085.17
2019-06-10T18:58:12.026Z,98088.28
2019-06-10T19:00:57.041Z,98097.72
2019-06-10T19:03:16.758Z,98093.43
2019-06-10T19:05:48.575Z,98088.34
2019-06-10T19:08:18.038Z,98095.13
2019-06-10T19:10:53.311Z,98093.12
2019-06-10T19:13:24.488Z,98092.52
2019-06-10T19:15:53.947Z,98095.02
2019-06-10T19:18:23.739Z,98101.52
2019-06-10T19:20:53.736Z,98105.89
2019-06-10T19:23:23.432Z,98095.83
2019-06-10T19:25:53.070Z,98099.88
2019-06-10T19:28:25.332Z,98098.84
2019-06-10T19:30:54.823Z,98095.50
2019-06-10T19:33:25.381Z,98092.59
2019-06-10T19:35:54.890Z,98098.81
2019-06-10T19:38:24.353Z,98108.88
2019-06-10T19:40:54.014Z,98105.19
2019-06-10T19:43:23.708Z,98106.09
2019-06-10T19:45:53.302Z,98104.61
2019-06-10T19:48:22.856Z,98110.27
2019-06-10T19:50:53.896Z,98112.28
2019-06-10T19:53:23.602Z,98111.56
2019-06-10T19:55:53.445Z,98116.73
2019-06-10T19:58:23.305Z,98111.44
2019-06-10T20:00:54.527Z,98111.86
2019-06-10T20:03:25.689Z,98111.06
2019-06-10T20:05:56.738Z,98112.56
2019-06-10T20:08:26.198Z,98113.56
2019-06-10T20:10:55.735Z,98114.27
2019-06-10T20:13:25.454Z,98123.89
2019-06-10T20:15:55.084Z,98126.64
2019-06-10T20:18:24.542Z,98120.48
2019-06-10T20:20:54.245Z,98129.36
2019-06-10T20:23:23.791Z,98127.23
2019-06-10T20:25:53.447Z,98117.63
2019-06-10T20:28:22.949Z,98112.27
2019-06-10T20:30:52.972Z,98115.09
2019-06-10T20:33:24.288Z,98104.69
2019-06-10T20:35:54.917Z,98088.77
2019-06-10T20:38:24.423Z,98085.05
2019-06-10T20:40:54.062Z,98080.74
2019-06-10T20:43:23.561Z,98071.30
2019-06-10T20:45:53.124Z,98067.24
2019-06-10T20:48:24.615Z,98071.77
2019-06-10T20:50:53.973Z,98069.33
2019-06-10T20:53:23.512Z,98065.13
2019-06-10T20:55:57.387Z,98080.34
2019-06-10T20:58:24.233Z,98087.08
2019-06-10T21:00:57.225Z,98093.44
2019-06-10T21:03:28.367Z,98098.15
2019-06-10T21:06:02.920Z,98102.15
2019-06-10T21:08:34.013Z,98097.61
2019-06-10T21:11:03.477Z,98098.13
2019-06-10T21:13:33.283Z,98102.55
2019-06-10T21:16:03.508Z,98107.23
2019-06-10T21:18:33.540Z,98105.80
2019-06-10T21:21:03.695Z,98110.33
2019-06-10T21:23:33.559Z,98108.13
2019-06-10T21:26:03.294Z,98111.94
2019-06-10T21:28:32.980Z,98106.87
2019-06-10T21:31:03.000Z,98100.86
2019-06-10T21:33:33.479Z,98099.17
2019-06-10T21:36:04.032Z,98093.38
2019-06-10T21:38:33.930Z,98087.42
2019-06-10T21:41:03.524Z,98089.17
2019-06-10T21:43:33.428Z,98093.25
2019-06-10T21:46:04.445Z,98096.84
2019-06-10T21:48:33.936Z,98100.73
2019-06-10T21:51:03.497Z,98095.85
2019-06-10T21:53:33.026Z,98092.73
2019-06-10T21:56:02.529Z,98090.70
2019-06-10T21:58:32.795Z,98087.94
2019-06-10T22:01:12.121Z,98088.47
2019-06-10T22:03:34.088Z,98094.83
2019-06-10T22:06:03.596Z,98096.44
2019-06-10T22:08:33.602Z,98094.00
2019-06-10T22:11:04.844Z,98089.56
2019-06-10T22:13:34.359Z,98091.97
2019-06-10T22:16:06.831Z,98097.86
2019-06-10T22:18:36.325Z,98095.73
2019-06-10T22:21:05.846Z,98092.82
2019-06-10T22:23:35.348Z,98089.83
2019-06-10T22:26:04.910Z,98088.33
2019-06-10T22:28:34.385Z,98089.88
2019-06-10T22:31:18.062Z,98089.05
2019-06-10T22:33:35.229Z,98094.52
2019-06-10T22:36:05.364Z,98096.36
2019-06-10T22:38:34.827Z,98100.83
2019-06-10T22:41:04.310Z,98104.20
2019-06-10T22:43:33.846Z,98103.84
2019-06-10T22:46:04.065Z,98107.48
2019-06-10T22:48:33.694Z,98104.65
2019-06-10T22:51:03.250Z,98104.52
2019-06-10T22:53:33.342Z,98106.45
2019-06-10T22:56:03.139Z,98115.80
2019-06-10T22:58:33.046Z,98113.47
2019-06-10T23:01:04.242Z,98109.69
2019-06-10T23:03:33.690Z,98099.09
2019-06-10T23:06:03.206Z,98103.23
2019-06-10T23:08:33.451Z,98105.66
2019-06-10T23:11:03.268Z,98109.64
2019-06-10T23:13:32.960Z,98112.52
2019-06-10T23:16:02.664Z,98114.61
2019-06-10T23:18:32.204Z,98109.70
2019-06-10T23:21:04.351Z,98104.46
2019-06-10T23:23:32.917Z,98101.12
2019-06-10T23:26:03.911Z,98099.09
2019-06-10T23:28:33.463Z,98099.27
2019-06-10T23:31:05.290Z,98094.44
2019-06-10T23:33:34.176Z,98094.58
2019-06-10T23:36:04.061Z,98097.80
2019-06-10T23:38:34.939Z,98091.96
2019-06-10T23:41:04.659Z,98084.67
2019-06-10T23:43:34.564Z,98081.14
2019-06-10T23:46:05.622Z,98077.38
2019-06-10T23:48:35.162Z,98068.31
2019-06-10T23:51:05.257Z,98068.69
2019-06-10T23:53:34.807Z,98070.72
2019-06-10T23:56:05.071Z,98072.50
2019-06-10T23:58:34.972Z,98072.76
